Monday, November 20, 2017, 2:02 PM EST
Back to Local

K1P1, Plymouth, Plymouth Municipal Airport

Location: Plymouth, NH, United States Lat: 43.779
Local Time: 2:02 PM EST (19:02 GMT) Lon: -71.754
Time Zone: US/Eastern Elev: 505 ft

Show me the last for .
Show Decoded

2017-11-20 13:55 METAR K1P1 201855Z AUTO 28010G20KT 10SM SCT031 OVC042 00/M07 A2982 RMK AO2
                 T00001075 =
2017-11-20 13:35 METAR K1P1 201835Z AUTO 27009G18KT 240V300 10SM BKN039 OVC047 00/M08 A2982 RMK
                 AO2 T00011084 =
2017-11-20 13:15 METAR K1P1 201815Z AUTO 29010KT 10SM SCT041 BKN047 OVC070 00/M09 A2982 RMK AO2
                 T00021088 =
2017-11-20 12:55 METAR K1P1 201755Z AUTO 27009KT 10SM SCT045 BKN075 BKN110 00/M09 A2982 RMK AO2
                 T00021094 10002 21026 =
2017-11-20 12:35 METAR K1P1 201735Z AUTO 29011G19KT 10SM CLR 00/M10 A2982 RMK AO2 T00001099 =
2017-11-20 12:15 METAR K1P1 201715Z AUTO 29010G23KT 10SM CLR 00/M10 A2982 RMK AO2 T00001102 =
2017-11-20 11:55 METAR K1P1 201655Z AUTO 28015G28KT 10SM CLR 00/M11 A2982 RMK AO2 T10021106 =
2017-11-20 11:35 METAR K1P1 201635Z AUTO 29013G29KT 10SM CLR 00/M11 A2982 RMK AO2 T10031108 =
2017-11-20 11:15 METAR K1P1 201615Z AUTO 30014G29KT 10SM SCT041 M01/M11 A2982 RMK AO2 T10061111 =
2017-11-20 10:55 METAR K1P1 201555Z AUTO 29016G28KT 10SM BKN039 BKN045 M01/M11 A2982 RMK AO2
                 T10081115 =
2017-11-20 10:35 METAR K1P1 201535Z AUTO 28023G32KT 10SM SCT039 BKN045 M01/M11 A2984 RMK AO2
                 T10061114 =
2017-11-20 10:15 METAR K1P1 201515Z AUTO 29018G29KT 10SM SCT038 SCT047 M01/M10 A2982 RMK AO2
                 T10071103 =
2017-11-20 09:55 METAR K1P1 201455Z AUTO 29016G27KT 10SM SCT038 SCT045 M01/M10 A2982 RMK AO2
                 T10101099 =
2017-11-20 09:35 METAR K1P1 201435Z AUTO 29015G21KT 7SM SCT006 SCT013 BKN038 M01/M08 A2980 RMK
                 AO2 T10131076 =
2017-11-20 09:15 METAR K1P1 201415Z AUTO 28010G18KT 3/4SM -SN BKN006 OVC012 M03/M05 A2981 RMK AO2
                 T10261049 =
2017-11-20 08:35 METAR K1P1 201335Z AUTO 28011G21KT 10SM SCT021 SCT031 BKN038 M01/M08 A2979 RMK
                 AO2 T10111079 =
2017-11-20 08:15 METAR K1P1 201315Z AUTO 28005KT 10SM SCT030 BKN037 BKN043 M02/M05 A2978 RMK AO2
                 T10171053 =
2017-11-20 07:55 METAR K1P1 201255Z AUTO 29003KT 7SM -SN SCT026 BKN034 OVC042 M02/M04 A2977 RMK
                 AO2 T10201041 =
2017-11-20 07:35 METAR K1P1 201235Z AUTO 29005KT 2SM -SN SCT012 BKN025 OVC030 M02/M04 A2976 RMK
                 AO2 T10201042 =
2017-11-20 07:15 METAR K1P1 201215Z AUTO 00000KT 4SM -SN SCT012 BKN033 OVC065 M02/M04 A2976 RMK
                 AO2 T10191045 =
2017-11-20 06:55 METAR K1P1 201155Z AUTO 26006KT 5SM -SN SCT010 BKN026 OVC034 M02/M04 A2975 RMK
                 AO2 70009 T10201045 10002 21020 =
2017-11-20 06:35 METAR K1P1 201135Z AUTO 27003KT 10SM -SN SCT021 BKN027 OVC035 M01/M05 A2974 RMK
                 AO2 T10151051 =
2017-11-20 06:15 METAR K1P1 201115Z AUTO 00000KT 10SM BKN035 BKN048 OVC060 M01/M06 A2973 RMK AO2
                 T10111060 =
2017-11-20 05:55 METAR K1P1 201055Z AUTO 25004KT 10SM -SN SCT026 SCT036 OVC060 M01/M06 A2972 RMK
                 AO2 T10101063 =
2017-11-20 05:35 METAR K1P1 201035Z AUTO 29004KT 10SM SCT037 BKN050 OVC060 M01/M07 A2971 RMK AO2
                 T10081066 =
2017-11-20 05:15 METAR K1P1 201015Z AUTO 29007KT 10SM SCT037 BKN050 OVC065 M01/M07 A2970 RMK AO2
                 T10071066 =
2017-11-20 04:55 METAR K1P1 200955Z AUTO 30008G14KT 10SM SCT033 BKN050 OVC065 M01/M07 A2969 RMK
                 AO2 T10061066 =
2017-11-20 04:35 METAR K1P1 200935Z AUTO 28006KT 10SM SCT033 SCT046 OVC050 M01/M06 A2969 RMK AO2
                 T10061062 =
2017-11-20 04:15 METAR K1P1 200915Z AUTO 31006KT 10SM SCT050 OVC060 00/M06 A2968 RMK AO2
                 T10051064 =
2017-11-20 03:55 METAR K1P1 200855Z AUTO 28006KT 10SM OVC050 00/M06 A2967 RMK AO2 T10051064 =
2017-11-20 03:35 METAR K1P1 200835Z AUTO 28004KT 10SM SCT034 OVC050 00/M07 A2966 RMK AO2
                 T10051066 =
2017-11-20 03:15 METAR K1P1 200815Z AUTO 30005KT 10SM SCT035 BKN060 OVC085 00/M07 A2966 RMK AO2
                 T10051067 =
2017-11-20 02:55 METAR K1P1 200755Z AUTO 29006KT 10SM OVC085 M01/M07 A2965 RMK AO2 T10061067 =
2017-11-20 02:35 METAR K1P1 200735Z AUTO 30004KT 10SM BKN085 M01/M06 A2965 RMK AO2 T10061065 =
2017-11-20 02:15 METAR K1P1 200715Z AUTO 30009KT 10SM CLR 00/M07 A2964 RMK AO2 T10041067 =
2017-11-20 01:55 METAR K1P1 200655Z AUTO 29007G14KT 10SM CLR 00/M07 A2964 RMK AO2 T10021067 =
2017-11-20 01:35 METAR K1P1 200635Z AUTO 29010G15KT 10SM SCT048 00/M07 A2962 RMK AO2 T00001070 =
2017-11-20 01:15 METAR K1P1 200615Z AUTO 31009G14KT 10SM BKN042 OVC049 00/M06 A2962 RMK AO2
                 T00001065 =
2017-11-20 00:55 METAR K1P1 200555Z AUTO 30006KT 10SM SCT041 BKN050 00/M06 A2961 RMK AO2
                 T00021065 10007 20002 =
2017-11-20 00:35 METAR K1P1 200535Z AUTO 30008KT 10SM SCT041 SCT047 00/M06 A2961 RMK AO2
                 T00021063 =
2017-11-20 00:15 METAR K1P1 200515Z AUTO 29008G17KT 10SM SCT045 SCT055 00/M06 A2960 RMK AO2
                 T00031062 =
2017-11-19 23:55 METAR K1P1 200455Z AUTO 29007G16KT 10SM BKN042 OVC047 01/M06 A2960 RMK AO2
                 T00061061 =
2017-11-19 23:35 METAR K1P1 200435Z AUTO 30008KT 10SM BKN040 OVC047 01/M06 A2959 RMK AO2
                 T00051058 =
2017-11-19 23:15 METAR K1P1 200415Z AUTO 29008KT 10SM SCT034 BKN039 OVC047 01/M05 A2958 RMK AO2
                 T00051051 =
2017-11-19 22:55 METAR K1P1 200355Z AUTO 28011G18KT 10SM OVC033 00/M04 A2957 RMK AO2 T00031043
                 400780000 =
2017-11-19 22:35 METAR K1P1 200335Z AUTO 27005KT 10SM -SN BKN036 OVC041 01/M04 A2957 RMK AO2
                 T00051045 =
2017-11-19 22:15 METAR K1P1 200315Z AUTO 28004KT 10SM BKN036 OVC048 01/M05 A2956 RMK AO2
                 T00061051 =
2017-11-19 21:55 METAR K1P1 200255Z AUTO 27007KT 10SM OVC038 01/M05 A2955 RMK AO2 T00071052 =
2017-11-19 21:35 METAR K1P1 200235Z AUTO 28007KT 10SM BKN040 OVC048 01/M05 A2956 RMK AO2
                 T00071053 =
2017-11-19 21:15 METAR K1P1 200215Z AUTO 29006KT 10SM BKN040 OVC048 01/M05 A2954 RMK AO2
                 T00061054 =
2017-11-19 20:55 METAR K1P1 200155Z AUTO 29008G14KT 10SM SCT038 OVC044 01/M05 A2953 RMK AO2
                 T00061055 =
2017-11-19 20:35 METAR K1P1 200135Z AUTO 30011G16KT 10SM OVC042 01/M05 A2952 RMK AO2 T00051055 =
2017-11-19 20:15 METAR K1P1 200115Z AUTO 30007G15KT 260V330 10SM OVC038 01/M06 A2952 RMK AO2
                 T00051056 =
2017-11-19 19:55 METAR K1P1 200055Z AUTO 30009KT 10SM OVC038 01/M06 A2951 RMK AO2 T00051059 =
2017-11-19 19:35 METAR K1P1 200035Z AUTO 30010G20KT 10SM OVC040 01/M06 A2950 RMK AO2 T00051060 =
2017-11-19 19:15 METAR K1P1 200015Z AUTO 31012G20KT 10SM OVC040 01/M06 A2950 RMK AO2 T00051060 =
2017-11-19 18:55 METAR K1P1 192355Z AUTO 30014G22KT 270V340 10SM OVC040 01/M06 A2949 RMK AO2
                 T00071057 10048 20007 =
2017-11-19 18:35 METAR K1P1 192335Z AUTO 30016G22KT 10SM OVC032 01/M05 A2947 RMK AO2 T00081050 =
2017-11-19 18:15 METAR K1P1 192315Z AUTO 30011G24KT 10SM OVC032 01/M05 A2946 RMK AO2 T00101047 =
2017-11-19 17:55 METAR K1P1 192255Z AUTO 30013G21KT 10SM OVC032 01/M04 A2945 RMK AO2 T00101044 =
2017-11-19 17:35 METAR K1P1 192235Z AUTO 32008G23KT 10SM OVC032 01/M04 A2944 RMK AO2 T00111044 =
2017-11-19 17:15 METAR K1P1 192215Z AUTO 30011G16KT 10SM OVC034 01/M04 A2942 RMK AO2 T00111042 =
2017-11-19 16:55 METAR K1P1 192155Z AUTO 30012G28KT 10SM BKN036 OVC043 01/M04 A2941 RMK AO2
                 T00131042 =
2017-11-19 16:35 METAR K1P1 192135Z AUTO 30013G21KT 10SM BKN034 OVC041 02/M04 A2939 RMK AO2
                 T00151042 =
2017-11-19 16:15 METAR K1P1 192115Z AUTO 31013G21KT 10SM OVC034 02/M04 A2939 RMK AO2 T00171041 =
2017-11-19 15:55 METAR K1P1 192055Z AUTO 29013G21KT 10SM OVC034 02/M04 A2936 RMK AO2 T00201036 =
2017-11-19 15:35 METAR K1P1 192035Z AUTO 30009G24KT 10SM SCT032 OVC039 03/M03 A2933 RMK AO2
                 T00251031 =
2017-11-19 15:15 METAR K1P1 192015Z AUTO 32013G27KT 270V350 10SM BKN034 OVC039 03/M02 A2931 RMK
                 AO2 T00301022 =
2017-11-19 14:55 METAR K1P1 191955Z AUTO 31016G27KT 10SM SCT034 OVC042 04/M02 A2928 RMK AO2
                 T00351018 =
2017-11-19 14:35 METAR K1P1 191935Z AUTO 30017G26KT 270V330 10SM SCT028 BKN034 OVC041 04/M01
                 A2926 RMK AO2 T00361013 =
2017-11-19 14:15 METAR K1P1 191915Z AUTO 31009KT 10SM BKN030 OVC036 04/M01 A2926 RMK AO2
                 T00381006 =

Support USWX by starting your Amazon purchase here.